createdAt,value
2023-02-09T00:01:55.587Z,102252.13
2023-02-09T00:04:57.127Z,102252.13
2023-02-09T00:07:58.592Z,102236.84
2023-02-09T00:11:00.126Z,102243.25
2023-02-09T00:14:01.606Z,102237.81
2023-02-09T00:17:04.256Z,102240.53
2023-02-09T00:20:07.531Z,102240.53
2023-02-09T00:23:09.018Z,102242.38
2023-02-09T00:26:11.658Z,102239.66
2023-02-09T00:29:21.489Z,102234.38
2023-02-09T00:32:24.552Z,102235.25
2023-02-09T00:35:26.047Z,102231.66
2023-02-09T00:38:28.817Z,102233.47
2023-02-09T00:41:49.163Z,102234.47
2023-02-09T00:44:50.733Z,102232.63
2023-02-09T00:47:52.430Z,102233.63
2023-02-09T00:50:54.040Z,102233.47
2023-02-09T00:53:55.645Z,102220.91
2023-02-09T00:57:04.939Z,102229.06
2023-02-09T01:00:09.681Z,102219.19
2023-02-09T01:03:11.557Z,102214.63
2023-02-09T01:06:13.036Z,102207.47
2023-02-09T01:09:14.609Z,102204.88
2023-02-09T01:12:16.194Z,102213.03
2023-02-09T01:15:17.828Z,102210.31
2023-02-09T01:18:19.352Z,102202.19
2023-02-09T01:21:23.056Z,102205.84
2023-02-09T01:24:24.595Z,102193.28
2023-02-09T01:27:26.068Z,102192.44
2023-02-09T01:30:28.036Z,102184.31
2023-02-09T01:33:30.637Z,102181.59
2023-02-09T01:36:32.748Z,102187.00
2023-02-09T01:39:34.313Z,102190.69
2023-02-09T01:42:36.078Z,102183.44
2023-02-09T01:45:48.576Z,102179.97
2023-02-09T01:48:54.070Z,102176.25
2023-02-09T01:52:10.303Z,102169.00
2023-02-09T01:55:19.835Z,102165.44
2023-02-09T01:58:25.352Z,102160.13
2023-02-09T02:01:27.254Z,102168.25
2023-02-09T02:04:30.706Z,102155.69
2023-02-09T02:07:46.747Z,102154.72
2023-02-09T02:10:48.471Z,102144.84
2023-02-09T02:13:50.194Z,102140.41
2023-02-09T02:17:06.026Z,102121.44
2023-02-09T02:20:42.756Z,102123.16
2023-02-09T02:23:44.503Z,102112.56
2023-02-09T02:26:56.486Z,102107.03
2023-02-09T02:30:16.457Z,102095.31
2023-02-09T02:33:39.065Z,102105.28
2023-02-09T02:36:40.489Z,102101.72
2023-02-09T02:39:57.525Z,102108.84
2023-02-09T02:43:19.840Z,102098.16
2023-02-09T02:46:44.607Z,102098.16
2023-02-09T02:49:53.212Z,102094.56
2023-02-09T02:52:57.777Z,102100.00
2023-02-09T02:56:06.236Z,102085.56
2023-02-09T02:59:28.599Z,102076.56
2023-02-09T03:02:35.019Z,102076.56
2023-02-09T03:05:37.447Z,102077.56
2023-02-09T03:08:51.000Z,102072.13
2023-02-09T03:11:57.451Z,102069.44
2023-02-09T03:15:05.043Z,102063.16
2023-02-09T03:18:34.664Z,102064.00
2023-02-09T03:21:57.428Z,102059.56
2023-02-09T03:25:02.144Z,102063.25
2023-02-09T03:28:19.625Z,102050.56
2023-02-09T03:31:22.344Z,102040.72
2023-02-09T03:34:23.897Z,102056.13
2023-02-09T03:37:25.491Z,102057.06
2023-02-09T03:40:27.086Z,102057.94
2023-02-09T03:43:47.311Z,102051.66
2023-02-09T03:46:48.901Z,102043.66
2023-02-09T03:49:50.430Z,102045.38
2023-02-09T03:52:51.941Z,102042.69
2023-02-09T03:55:53.424Z,102030.97
2023-02-09T03:58:54.956Z,102039.09
2023-02-09T04:01:58.597Z,102039.09
2023-02-09T04:05:00.066Z,102028.28
2023-02-09T04:08:01.584Z,102029.13
2023-02-09T04:11:03.281Z,102031.72
2023-02-09T04:14:05.178Z,102016.19
2023-02-09T04:17:06.716Z,102016.09
2023-02-09T04:20:08.614Z,102021.28
2023-02-09T04:23:10.124Z,102003.94
2023-02-09T04:26:12.059Z,101995.69
2023-02-09T04:29:13.563Z,101998.28
2023-02-09T04:32:15.058Z,101997.19
2023-02-09T04:35:16.636Z,102005.22
2023-02-09T04:38:20.483Z,101989.69
2023-02-09T04:41:22.219Z,101994.13
2023-02-09T04:44:23.677Z,101992.28
2023-02-09T04:47:25.174Z,101990.31
2023-02-09T04:50:26.620Z,101986.66
2023-02-09T04:53:29.523Z,101983.94
2023-02-09T04:56:30.973Z,101979.22
2023-02-09T04:59:35.074Z,101983.69
2023-02-09T05:02:37.795Z,101980.22
2023-02-09T05:05:40.570Z,101977.53
2023-02-09T05:08:42.129Z,101985.75
2023-02-09T05:11:43.665Z,101969.72
2023-02-09T05:14:45.200Z,101970.72
2023-02-09T05:17:46.730Z,101952.84
2023-02-09T05:20:48.965Z,101952.09
2023-02-09T05:23:50.512Z,101952.34
2023-02-09T05:26:51.987Z,101956.00
2023-02-09T05:29:53.554Z,101961.56
2023-02-09T05:32:55.477Z,101965.38
2023-02-09T05:35:57.033Z,101964.63
2023-02-09T05:38:58.548Z,101969.28
2023-02-09T05:42:15.108Z,101965.72
2023-02-09T05:45:16.582Z,101956.72
2023-02-09T05:48:18.039Z,101961.41
2023-02-09T05:51:19.502Z,101963.25
2023-02-09T05:54:21.289Z,101967.66
2023-02-09T05:57:22.899Z,101978.50
2023-02-09T06:00:25.050Z,101993.81
2023-02-09T06:03:26.707Z,101972.00
2023-02-09T06:06:28.260Z,101970.03
2023-02-09T06:09:29.791Z,101968.94
2023-02-09T06:12:31.259Z,101984.09
2023-02-09T06:15:32.858Z,101992.00
2023-02-09T06:18:34.448Z,101980.19
2023-02-09T06:21:35.925Z,101995.22
2023-02-09T06:24:37.424Z,101997.81
2023-02-09T06:27:38.917Z,101999.44
2023-02-09T06:30:40.473Z,102011.91
2023-02-09T06:33:42.098Z,102011.75
2023-02-09T06:36:43.576Z,102026.31
2023-02-09T06:39:45.051Z,102056.97
2023-02-09T06:42:46.640Z,102084.09
2023-02-09T06:45:48.233Z,102081.38
2023-02-09T06:48:49.848Z,102086.78
2023-02-09T06:51:51.515Z,102079.75
2023-02-09T06:54:53.067Z,102077.91
2023-02-09T06:57:55.367Z,102056.34
2023-02-09T07:01:02.291Z,102040.94
2023-02-09T07:04:03.901Z,102025.78
2023-02-09T07:07:05.361Z,102037.63
2023-02-09T07:10:08.197Z,102054.84
2023-02-09T07:13:09.680Z,102054.09
2023-02-09T07:16:15.952Z,102049.56
2023-02-09T07:19:17.482Z,102065.91
2023-02-09T07:22:18.986Z,102056.94
2023-02-09T07:25:20.497Z,102067.00
2023-02-09T07:28:22.437Z,102068.00
2023-02-09T07:31:24.247Z,102058.25
2023-02-09T07:34:25.875Z,102064.53
2023-02-09T07:37:27.399Z,102060.97
2023-02-09T07:40:28.950Z,102066.50
2023-02-09T07:43:30.717Z,102075.47
2023-02-09T07:46:32.778Z,102079.19
2023-02-09T07:49:35.247Z,102067.34
2023-02-09T07:52:36.691Z,102052.94
2023-02-09T07:55:39.887Z,102056.50
2023-02-09T07:58:41.390Z,102051.22
2023-02-09T08:01:42.893Z,102048.50
2023-02-09T08:04:44.874Z,102048.50
2023-02-09T08:07:46.470Z,102058.34
2023-02-09T08:10:48.171Z,102055.75
2023-02-09T08:13:51.887Z,102056.66
2023-02-09T08:17:18.417Z,102037.78
2023-02-09T08:20:25.462Z,102033.34
2023-02-09T08:23:31.000Z,102036.91
2023-02-09T08:26:32.661Z,102048.72
2023-02-09T08:29:34.206Z,102050.47
2023-02-09T08:32:36.219Z,102050.34
2023-02-09T08:35:37.658Z,102047.75
2023-02-09T08:38:39.760Z,102044.06
2023-02-09T08:41:41.284Z,102040.47
2023-02-09T08:44:42.719Z,102031.50
2023-02-09T08:47:44.166Z,102038.63
2023-02-09T08:50:45.628Z,102044.06
2023-02-09T08:53:52.287Z,102052.09
2023-02-09T08:56:54.172Z,102062.91
2023-02-09T08:59:55.598Z,102058.34
2023-02-09T09:02:57.064Z,102060.06
2023-02-09T09:06:03.706Z,102062.78
2023-02-09T09:09:05.066Z,102066.38
2023-02-09T09:12:06.514Z,102069.19
2023-02-09T09:15:08.325Z,102068.22
2023-02-09T09:18:10.106Z,102070.91
2023-02-09T09:21:13.154Z,102071.91
2023-02-09T09:24:16.074Z,102072.91
2023-02-09T09:27:17.542Z,102080.03
2023-02-09T09:30:19.185Z,102080.03
2023-02-09T09:33:20.855Z,102088.06
2023-02-09T09:36:22.528Z,102090.53
2023-02-09T09:39:25.604Z,102093.25
2023-02-09T09:42:36.134Z,102091.16
2023-02-09T09:45:38.606Z,102102.88
2023-02-09T09:48:50.790Z,102106.34
2023-02-09T09:52:13.281Z,102100.81
2023-02-09T09:55:23.351Z,102093.53
2023-02-09T09:58:25.336Z,102094.31
2023-02-09T10:01:28.866Z,102102.28
2023-02-09T10:04:30.480Z,102092.22
2023-02-09T10:07:34.130Z,102092.13
2023-02-09T10:10:51.155Z,102098.28
2023-02-09T10:13:53.786Z,102101.63
2023-02-09T10:16:55.363Z,102096.31
2023-02-09T10:20:05.595Z,102097.19
2023-02-09T10:23:15.044Z,102104.34
2023-02-09T10:26:25.809Z,102099.91
2023-02-09T10:29:27.356Z,102101.00
2023-02-09T10:32:43.207Z,102094.69
2023-02-09T10:35:51.189Z,102106.63
2023-02-09T10:39:03.230Z,102113.78
2023-02-09T10:42:24.382Z,102102.09
2023-02-09T10:45:37.581Z,102094.81
2023-02-09T10:48:42.089Z,102093.97
2023-02-09T10:51:43.574Z,102091.25
2023-02-09T10:54:51.211Z,102092.97
2023-02-09T10:58:12.615Z,102088.53
2023-02-09T11:01:22.634Z,102079.53
2023-02-09T11:04:26.975Z,102079.66
2023-02-09T11:07:38.470Z,102086.94
2023-02-09T11:10:45.277Z,102083.31
2023-02-09T11:13:46.844Z,102077.19
2023-02-09T11:17:26.812Z,102068.16
2023-02-09T11:20:35.904Z,102054.75
2023-02-09T11:23:37.358Z,102030.59
2023-02-09T11:26:58.310Z,102042.28
2023-02-09T11:30:22.102Z,102043.91
2023-02-09T11:33:39.675Z,102070.16
2023-02-09T11:36:53.324Z,102044.00
2023-02-09T11:40:51.863Z,102044.84
2023-02-09T11:43:55.753Z,102044.84
2023-02-09T11:47:07.002Z,102038.72
2023-02-09T11:50:15.375Z,102054.97
2023-02-09T11:53:26.081Z,102032.53
2023-02-09T11:56:28.723Z,102044.34
2023-02-09T11:59:38.959Z,102060.59
2023-02-09T12:02:57.183Z,102044.25
2023-02-09T12:05:59.655Z,102059.88
2023-02-09T12:09:08.362Z,102046.31
2023-02-09T12:12:25.845Z,102042.72
2023-02-09T12:15:50.498Z,102037.31
2023-02-09T12:18:55.323Z,102040.91
2023-02-09T12:21:56.873Z,102041.88
2023-02-09T12:25:37.153Z,102036.34
2023-02-09T12:28:40.574Z,102038.31
2023-02-09T12:32:06.057Z,102043.63
2023-02-09T12:35:37.338Z,102031.88
2023-02-09T12:38:55.468Z,102044.56
2023-02-09T12:42:00.938Z,102044.72
2023-02-09T12:45:02.425Z,102041.09
2023-02-09T12:48:09.829Z,102032.97
2023-02-09T12:51:42.037Z,102037.53
2023-02-09T12:54:52.630Z,102033.97
2023-02-09T12:57:54.229Z,102030.41
2023-02-09T13:00:56.604Z,102044.91
2023-02-09T13:04:03.061Z,102038.53
2023-02-09T13:07:11.829Z,102030.28
2023-02-09T13:10:27.947Z,102038.31
2023-02-09T13:13:33.038Z,102040.16
2023-02-09T13:17:00.991Z,102027.47
2023-02-09T13:20:45.659Z,102037.44
2023-02-09T13:24:10.928Z,102014.91
2023-02-09T13:27:23.579Z,102009.47
2023-02-09T13:30:32.413Z,101996.78
2023-02-09T13:33:52.481Z,101988.91
2023-02-09T13:37:24.679Z,102008.72
2023-02-09T13:40:35.024Z,102016.97
2023-02-09T13:43:40.206Z,102027.78
2023-02-09T13:46:57.626Z,102023.25
2023-02-09T13:50:12.847Z,102018.81
2023-02-09T13:53:18.048Z,102014.25
2023-02-09T13:56:19.594Z,102021.53
2023-02-09T13:59:21.313Z,102013.50
2023-02-09T14:02:26.767Z,102011.53
2023-02-09T14:05:48.748Z,101995.28
2023-02-09T14:08:52.619Z,101987.06
2023-02-09T14:12:01.635Z,101975.22
2023-02-09T14:15:22.256Z,101974.38
2023-02-09T14:18:27.891Z,101976.22
2023-02-09T14:21:37.344Z,101967.22
2023-02-09T14:24:44.759Z,101972.50
2023-02-09T14:27:47.876Z,101975.22
2023-02-09T14:30:50.492Z,101975.22
2023-02-09T14:33:55.043Z,101969.69
2023-02-09T14:37:04.258Z,101956.16
2023-02-09T14:40:06.133Z,101946.41
2023-02-09T14:43:10.760Z,101941.00
2023-02-09T14:46:12.294Z,101942.84
2023-02-09T14:49:13.902Z,101947.28
2023-02-09T14:52:15.751Z,101953.69
2023-02-09T14:55:21.020Z,101958.09
2023-02-09T14:58:23.772Z,101956.38
2023-02-09T15:01:25.315Z,101950.22
2023-02-09T15:04:26.883Z,101951.06
2023-02-09T15:07:37.473Z,101955.50
2023-02-09T15:10:43.945Z,101952.94
2023-02-09T15:13:46.028Z,101954.88
2023-02-09T15:16:47.702Z,101958.59
2023-02-09T15:19:49.320Z,101959.53
2023-02-09T15:22:52.046Z,101954.13
2023-02-09T15:25:53.538Z,101964.97
2023-02-09T15:28:55.181Z,101957.81
2023-02-09T15:31:56.670Z,101967.66
2023-02-09T15:34:58.213Z,101962.16
2023-02-09T15:38:01.411Z,101954.78
2023-02-09T15:41:21.484Z,101968.94
2023-02-09T15:44:41.306Z,101966.84
2023-02-09T15:47:48.474Z,101971.94
2023-02-09T15:50:50.729Z,101971.59
2023-02-09T15:53:57.605Z,101975.81
2023-02-09T15:57:01.030Z,101976.41
2023-02-09T16:00:02.830Z,101985.16
2023-02-09T16:03:14.549Z,101992.94
2023-02-09T16:06:20.213Z,102003.56
2023-02-09T16:09:28.873Z,102009.63
2023-02-09T16:12:30.566Z,102018.28
2023-02-09T16:15:32.056Z,102014.31
2023-02-09T16:18:33.572Z,102023.97
2023-02-09T16:21:35.694Z,102033.47
2023-02-09T16:24:39.700Z,102036.94
2023-02-09T16:27:41.204Z,102050.25
2023-02-09T16:30:52.487Z,102054.56
2023-02-09T16:33:54.012Z,102061.75
2023-02-09T16:36:55.543Z,102058.91
2023-02-09T16:39:58.350Z,102059.75
2023-02-09T16:43:01.269Z,102068.66
2023-02-09T16:46:04.626Z,102076.69
2023-02-09T16:49:06.501Z,102079.25
2023-02-09T16:52:21.855Z,102092.59
2023-02-09T16:55:29.246Z,102089.66
2023-02-09T16:58:31.158Z,102097.78
2023-02-09T17:01:34.341Z,102105.78
2023-02-09T17:04:37.736Z,102099.50
2023-02-09T17:07:52.422Z,102114.81
2023-02-09T17:10:56.304Z,102106.69
2023-02-09T17:13:57.818Z,102114.81
2023-02-09T17:16:59.458Z,102117.53
2023-02-09T17:20:00.978Z,102114.81
2023-02-09T17:23:02.495Z,102104.94
2023-02-09T17:26:04.203Z,102103.97
2023-02-09T17:29:06.085Z,102092.22
2023-02-09T17:32:13.425Z,102097.56
2023-02-09T17:35:15.902Z,102102.13
2023-02-09T17:38:35.461Z,102099.28
2023-02-09T17:41:44.536Z,102095.84
2023-02-09T17:44:46.902Z,102103.22
2023-02-09T17:47:56.768Z,102105.94
2023-02-09T17:51:00.143Z,102107.78
2023-02-09T17:54:02.798Z,102109.59
2023-02-09T17:57:04.344Z,102115.03
2023-02-09T18:00:06.293Z,102113.94
2023-02-09T18:03:14.097Z,102115.69
2023-02-09T18:06:19.638Z,102115.69
2023-02-09T18:09:21.131Z,102109.50
2023-02-09T18:12:26.389Z,102113.94
2023-02-09T18:15:36.542Z,102104.84
2023-02-09T18:18:38.496Z,102116.53
2023-02-09T18:21:52.357Z,102124.44
2023-02-09T18:24:59.563Z,102125.44
2023-02-09T18:28:02.257Z,102136.91
2023-02-09T18:31:06.277Z,102137.75
2023-02-09T18:34:07.954Z,102141.38
2023-02-09T18:37:09.423Z,102141.22
2023-02-09T18:40:11.041Z,102139.28
2023-02-09T18:43:14.549Z,102134.63
2023-02-09T18:46:16.531Z,102136.81
2023-02-09T18:49:18.066Z,102137.22
2023-02-09T18:52:24.319Z,102130.34
2023-02-09T18:55:30.803Z,102131.63
2023-02-09T18:58:32.322Z,102134.38
2023-02-09T19:01:34.731Z,102145.13
2023-02-09T19:04:36.270Z,102147.13
2023-02-09T19:07:37.775Z,102133.00
2023-02-09T19:10:41.536Z,102135.78
2023-02-09T19:13:43.480Z,102138.53
2023-02-09T19:16:45.109Z,102140.66
2023-02-09T19:19:47.936Z,102137.38
2023-02-09T19:22:51.559Z,102142.38
2023-02-09T19:26:05.881Z,102151.88
2023-02-09T19:29:07.400Z,102148.06
2023-02-09T19:32:10.094Z,102155.88
2023-02-09T19:35:11.600Z,102161.06
2023-02-09T19:38:13.053Z,102152.81
2023-02-09T19:41:14.528Z,102154.41
2023-02-09T19:44:16.068Z,102144.28
2023-02-09T19:47:17.596Z,102156.75
2023-02-09T19:50:19.189Z,102150.38
2023-02-09T19:53:20.781Z,102147.66
2023-02-09T19:56:23.498Z,102148.63
2023-02-09T19:59:25.225Z,102139.63
2023-02-09T20:02:26.879Z,102142.34
2023-02-09T20:05:28.460Z,102143.19
2023-02-09T20:08:30.148Z,102143.19
2023-02-09T20:11:33.127Z,102139.50
2023-02-09T20:14:34.639Z,102136.81
2023-02-09T20:17:36.407Z,102141.22
2023-02-09T20:20:41.649Z,102142.22
2023-02-09T20:23:45.664Z,102139.63
2023-02-09T20:26:48.077Z,102145.91
2023-02-09T20:29:49.967Z,102144.19
2023-02-09T20:32:51.583Z,102125.28
2023-02-09T20:35:53.079Z,102132.47
2023-02-09T20:38:54.766Z,102136.91
2023-02-09T20:42:16.664Z,102136.91
2023-02-09T20:45:36.579Z,102147.66
2023-02-09T20:48:38.114Z,102145.81
2023-02-09T20:51:39.942Z,102137.66
2023-02-09T20:54:41.408Z,102128.66
2023-02-09T20:57:43.094Z,102134.69
2023-02-09T21:00:44.869Z,102128.41
2023-02-09T21:03:46.476Z,102131.03
2023-02-09T21:06:48.452Z,102128.09
2023-02-09T21:09:49.969Z,102126.13
2023-02-09T21:12:51.458Z,102138.81
2023-02-09T21:15:53.027Z,102132.66
2023-02-09T21:18:54.526Z,102133.63
2023-02-09T21:21:56.582Z,102138.19
2023-02-09T21:24:58.150Z,102137.41
2023-02-09T21:27:59.712Z,102130.28
2023-02-09T21:31:01.555Z,102126.81
2023-02-09T21:34:04.231Z,102130.63
2023-02-09T21:37:08.861Z,102128.16
2023-02-09T21:40:12.227Z,102134.53
2023-02-09T21:43:13.832Z,102135.63
2023-02-09T21:46:18.728Z,102144.78
2023-02-09T21:49:20.966Z,102141.31
2023-02-09T21:52:22.518Z,102145.25
2023-02-09T21:55:24.016Z,102154.34
2023-02-09T21:58:25.544Z,102141.03
2023-02-09T22:01:27.108Z,102149.16
2023-02-09T22:04:28.699Z,102161.97
2023-02-09T22:07:30.902Z,102166.53
2023-02-09T22:10:32.397Z,102167.63
2023-02-09T22:13:34.072Z,102165.91
2023-02-09T22:16:35.582Z,102176.00
2023-02-09T22:19:37.522Z,102185.09
2023-02-09T22:22:39.756Z,102180.69
2023-02-09T22:25:41.454Z,102184.47
2023-02-09T22:28:43.327Z,102179.16
2023-02-09T22:31:45.411Z,102185.56
2023-02-09T22:34:46.937Z,102184.81
2023-02-09T22:37:48.554Z,102198.50
2023-02-09T22:40:50.024Z,102202.19
2023-02-09T22:43:57.256Z,102200.47
2023-02-09T22:46:58.830Z,102206.97
2023-02-09T22:50:00.377Z,102217.06
2023-02-09T22:53:01.945Z,102219.78
2023-02-09T22:56:04.182Z,102221.72
2023-02-09T22:59:05.692Z,102232.72
2023-02-09T23:02:07.195Z,102223.81
2023-02-09T23:05:08.878Z,102235.63
2023-02-09T23:08:10.393Z,102231.19
2023-02-09T23:11:15.140Z,102243.75
2023-02-09T23:14:17.069Z,102253.72
2023-02-09T23:17:18.846Z,102246.59
2023-02-09T23:20:21.357Z,102262.00
2023-02-09T23:23:22.845Z,102262.00
2023-02-09T23:26:24.765Z,102259.38
2023-02-09T23:29:26.715Z,102259.38
2023-02-09T23:32:28.268Z,102258.53
2023-02-09T23:35:29.738Z,102267.63
2023-02-09T23:38:31.521Z,102262.31
2023-02-09T23:41:33.946Z,102260.56
2023-02-09T23:44:35.424Z,102273.41
2023-02-09T23:47:36.912Z,102274.47
2023-02-09T23:50:38.402Z,102274.47
2023-02-09T23:53:39.939Z,102281.72
2023-02-09T23:56:41.490Z,102277.28
2023-02-09T23:59:42.969Z,102285.41
